createdAt,value
2018-01-29T10:24:38.397Z,921.27
2018-01-29T10:26:09.907Z,921.33
2018-01-29T10:27:41.727Z,921.33
2018-01-29T10:29:13.545Z,921.29
2018-01-29T10:30:46.075Z,921.31
2018-01-29T10:32:17.187Z,921.30
2018-01-29T10:33:48.999Z,921.31
2018-01-29T10:35:20.818Z,921.33
2018-01-29T10:36:52.637Z,921.34
2018-01-29T10:38:24.456Z,921.35
2018-01-29T10:39:56.274Z,921.39
2018-01-29T10:41:28.092Z,921.41
2018-01-29T10:43:00.012Z,921.41
2018-01-29T10:44:31.732Z,921.42
2018-01-29T10:46:03.550Z,921.36
2018-01-29T10:47:35.370Z,921.41
2018-01-29T10:49:07.189Z,921.44
2018-01-29T10:50:39.007Z,921.48
2018-01-29T10:52:10.827Z,921.53
2018-01-29T10:53:42.645Z,921.52
2018-01-29T10:55:15.598Z,921.53
2018-01-29T10:56:46.284Z,921.54
2018-01-29T10:58:18.104Z,921.54
2018-01-29T10:59:49.929Z,921.58
2018-01-29T11:01:21.844Z,921.66
2018-01-29T11:02:53.564Z,921.69
2018-01-29T11:04:25.384Z,921.70
2018-01-29T11:05:57.204Z,921.60
2018-01-29T11:07:29.024Z,921.58
2018-01-29T11:09:00.845Z,921.62
2018-01-29T11:10:32.664Z,921.65
2018-01-29T11:12:04.484Z,921.67
2018-01-29T11:13:36.314Z,921.68
2018-01-29T11:15:08.127Z,921.75
2018-01-29T11:16:39.952Z,921.74
2018-01-29T11:18:11.768Z,921.72
2018-01-29T11:19:43.688Z,921.69
2018-01-29T11:21:15.409Z,921.66
2018-01-29T11:22:47.263Z,921.73
2018-01-29T11:24:19.081Z,921.81
2018-01-29T11:25:50.875Z,921.76
2018-01-29T11:27:22.701Z,921.66
2018-01-29T11:28:54.517Z,921.68
2018-01-29T11:30:26.352Z,921.70
2018-01-29T11:31:58.160Z,921.74
2018-01-29T11:33:29.980Z,921.77
2018-01-29T11:35:01.863Z,921.83
2018-01-29T11:36:33.681Z,921.85
2018-01-29T11:38:05.613Z,921.88
2018-01-29T11:39:37.273Z,921.92
2018-01-29T11:41:09.545Z,921.96
2018-01-29T11:42:40.929Z,921.90
2018-01-29T11:44:12.728Z,921.89
2018-01-29T11:45:44.624Z,921.92
2018-01-29T11:47:16.471Z,921.96
2018-01-29T11:48:48.325Z,921.94
2018-01-29T11:50:20.439Z,921.98
2018-01-29T11:51:52.460Z,921.99
2018-01-29T11:53:23.672Z,922.03
2018-01-29T11:54:55.499Z,921.96
2018-01-29T11:56:27.407Z,922.00
2018-01-29T11:57:59.157Z,922.02
2018-01-29T11:59:30.949Z,922.02
2018-01-29T12:01:02.769Z,922.06
2018-01-29T12:02:34.844Z,922.16
2018-01-29T12:04:06.415Z,922.21
2018-01-29T12:05:38.238Z,922.20
2018-01-29T12:07:10.050Z,922.28
2018-01-29T12:08:41.889Z,922.28
2018-01-29T12:10:13.731Z,922.31
2018-01-29T12:11:45.731Z,922.29
2018-01-29T12:13:17.748Z,922.24
2018-01-29T12:14:49.532Z,922.30
2018-01-29T12:16:21.298Z,922.33
2018-01-29T12:17:52.816Z,922.31
2018-01-29T12:19:24.636Z,922.24
2018-01-29T12:20:57.262Z,922.24
2018-01-29T12:22:28.279Z,922.23
2018-01-29T12:24:00.109Z,922.25
2018-01-29T12:25:31.932Z,922.31
2018-01-29T12:27:03.749Z,922.30
2018-01-29T12:28:35.581Z,922.31
2018-01-29T12:30:07.394Z,922.28
2018-01-29T12:31:39.264Z,922.33
2018-01-29T12:33:11.364Z,922.34
2018-01-29T12:34:42.883Z,922.37
2018-01-29T12:36:14.698Z,922.40
2018-01-29T12:37:46.561Z,922.46
2018-01-29T12:39:18.349Z,922.42
2018-01-29T12:40:50.181Z,922.44
2018-01-29T12:42:22.764Z,922.43
2018-01-29T12:43:54.736Z,922.30
2018-01-29T12:45:26.195Z,922.35
2018-01-29T12:46:57.581Z,922.35
2018-01-29T12:48:29.400Z,922.28
2018-01-29T12:50:01.224Z,922.12
2018-01-29T12:51:33.118Z,922.10
2018-01-29T12:53:04.858Z,922.11
2018-01-29T12:54:36.629Z,922.10
2018-01-29T12:56:08.433Z,922.05
2018-01-29T12:57:40.330Z,922.10
2018-01-29T12:59:12.089Z,922.25
2018-01-29T13:00:43.913Z,922.12
2018-01-29T13:02:15.726Z,922.16
2018-01-29T13:03:47.543Z,922.15
2018-01-29T13:05:19.466Z,922.10
2018-01-29T13:06:51.228Z,922.14
2018-01-29T13:08:23.083Z,922.16
2018-01-29T13:09:54.943Z,922.11
2018-01-29T13:11:27.011Z,922.11
2018-01-29T13:12:58.858Z,922.12
2018-01-29T13:14:30.593Z,922.08
2018-01-29T13:16:02.408Z,922.10
2018-01-29T13:17:34.043Z,922.23
2018-01-29T13:19:05.848Z,922.01
2018-01-29T13:20:37.599Z,922.11
2018-01-29T13:22:09.421Z,922.14
2018-01-29T13:23:41.250Z,922.11
2018-01-29T13:25:13.060Z,922.15
2018-01-29T13:26:44.915Z,922.21
2018-01-29T13:28:16.866Z,922.38
2018-01-29T13:29:48.551Z,922.28
2018-01-29T13:31:20.405Z,922.32
2018-01-29T13:32:52.151Z,922.46
2018-01-29T13:34:24.003Z,922.69
2018-01-29T13:35:55.814Z,922.65
2018-01-29T13:37:27.627Z,922.72
2018-01-29T13:38:59.543Z,922.69
2018-01-29T13:40:31.669Z,922.68
2018-01-29T13:42:03.523Z,922.79
2018-01-29T13:43:35.256Z,922.68
2018-01-29T13:45:07.322Z,922.74
2018-01-29T13:46:38.675Z,922.60
2018-01-29T13:48:10.407Z,922.53
2018-01-29T13:49:42.242Z,922.55
2018-01-29T13:51:14.047Z,922.56
2018-01-29T13:52:45.862Z,922.53
2018-01-29T13:54:17.736Z,922.32
2018-01-29T13:55:49.562Z,922.24
2018-01-29T13:57:21.457Z,922.55
2018-01-29T13:58:53.233Z,922.38
2018-01-29T14:00:25.029Z,922.48
2018-01-29T14:01:56.881Z,922.60
2018-01-29T14:03:28.650Z,922.37
2018-01-29T14:05:00.648Z,922.21
2018-01-29T14:06:32.340Z,922.08
2018-01-29T14:08:04.232Z,922.12
2018-01-29T14:09:35.991Z,922.06
2018-01-29T14:11:07.768Z,922.09
2018-01-29T14:12:39.641Z,922.32
2018-01-29T14:14:11.464Z,922.12
2018-01-29T14:15:43.271Z,922.31
2018-01-29T14:17:15.216Z,922.31
2018-01-29T14:18:46.896Z,922.33
2018-01-29T14:20:18.722Z,922.33
2018-01-29T14:21:50.560Z,922.36
2018-01-29T14:23:22.476Z,922.40
2018-01-29T14:24:54.226Z,922.30
2018-01-29T14:26:26.054Z,922.36
2018-01-29T14:27:57.876Z,922.55
2018-01-29T14:29:29.735Z,922.72
2018-01-29T14:31:01.516Z,922.37
2018-01-29T14:32:34.451Z,922.25
2018-01-29T14:34:05.211Z,922.55
2018-01-29T14:35:37.040Z,922.38
2018-01-29T14:37:08.807Z,922.47
2018-01-29T14:38:40.724Z,922.35
2018-01-29T14:40:12.513Z,922.53
2018-01-29T14:41:44.386Z,922.40
2018-01-29T14:43:16.112Z,922.15
2018-01-29T14:44:47.945Z,921.96
2018-01-29T14:46:19.764Z,922.19
2018-01-29T14:47:51.595Z,922.10
2018-01-29T14:49:23.425Z,921.98
2018-01-29T14:50:55.250Z,921.73
2018-01-29T14:52:27.069Z,921.76
2018-01-29T14:53:58.896Z,921.78
2018-01-29T14:55:30.722Z,921.95
2018-01-29T14:57:02.547Z,922.14
2018-01-29T14:58:34.381Z,922.25
2018-01-29T15:00:06.300Z,922.10
2018-01-29T15:01:38.024Z,922.06
2018-01-29T15:03:09.861Z,921.92
2018-01-29T15:04:41.684Z,921.98
2018-01-29T15:06:13.502Z,921.75
2018-01-29T15:07:45.327Z,921.68
2018-01-29T15:09:17.156Z,921.96
2018-01-29T15:10:49.007Z,921.91
2018-01-29T15:12:20.809Z,921.96
2018-01-29T15:13:52.640Z,921.96
2018-01-29T15:15:24.462Z,921.89
2018-01-29T15:16:56.304Z,921.97
2018-01-29T15:18:28.359Z,921.93
2018-01-29T15:19:59.945Z,921.93
2018-01-29T15:21:31.764Z,921.82
2018-01-29T15:23:03.586Z,921.75
2018-01-29T15:24:35.411Z,921.76
2018-01-29T15:26:07.237Z,921.79
2018-01-29T15:27:39.063Z,921.81
2018-01-29T15:29:10.888Z,921.66
2018-01-29T15:30:42.714Z,921.57
2018-01-29T15:32:14.590Z,921.67
2018-01-29T15:33:46.366Z,921.77
2018-01-29T15:35:18.192Z,921.76
2018-01-29T15:36:50.127Z,921.73
2018-01-29T15:38:21.852Z,921.60
2018-01-29T15:39:53.674Z,921.54
2018-01-29T15:41:25.500Z,921.57
2018-01-29T15:42:57.443Z,921.56
2018-01-29T15:44:29.157Z,921.50
2018-01-29T15:46:01.038Z,921.49
2018-01-29T15:47:32.816Z,921.09
2018-01-29T15:49:04.645Z,921.47
2018-01-29T15:50:36.475Z,921.49
2018-01-29T15:52:08.304Z,921.56
2018-01-29T15:53:40.133Z,921.48
2018-01-29T15:55:12.065Z,921.61
2018-01-29T15:56:43.792Z,921.55
2018-01-29T15:58:15.624Z,921.36
2018-01-29T15:59:47.457Z,921.50
2018-01-29T16:01:19.281Z,921.48
2018-01-29T16:02:51.113Z,921.32
2018-01-29T16:04:22.964Z,921.12
2018-01-29T16:05:54.775Z,920.92
2018-01-29T16:07:26.606Z,921.00
2018-01-29T16:08:58.437Z,920.90
2018-01-29T16:10:30.266Z,920.85
2018-01-29T16:12:02.109Z,920.81
2018-01-29T16:13:34.025Z,920.78
2018-01-29T16:15:05.757Z,920.85
2018-01-29T16:16:37.600Z,920.72
2018-01-29T16:18:09.409Z,920.64
2018-01-29T16:19:41.238Z,920.87
2018-01-29T16:21:13.065Z,920.90
2018-01-29T16:22:44.896Z,920.92
2018-01-29T16:24:16.720Z,920.52
2018-01-29T16:25:48.548Z,920.61
2018-01-29T16:27:20.387Z,920.74
2018-01-29T16:28:52.205Z,920.64
2018-01-29T16:30:24.035Z,920.72
2018-01-29T16:31:56.032Z,920.82
2018-01-29T16:33:27.693Z,920.54
2018-01-29T16:34:59.523Z,920.67
2018-01-29T16:36:31.351Z,920.54
2018-01-29T16:38:03.183Z,920.23
2018-01-29T16:39:35.013Z,920.22
2018-01-29T16:41:06.843Z,920.20
2018-01-29T16:42:38.700Z,920.17
2018-01-29T16:44:10.505Z,920.03
2018-01-29T16:45:42.336Z,920.38
2018-01-29T16:47:14.168Z,920.03
2018-01-29T16:48:46.061Z,919.79
2018-01-29T16:50:17.929Z,919.87
2018-01-29T16:51:49.898Z,919.80
2018-01-29T16:53:21.500Z,919.83
2018-01-29T16:54:53.315Z,919.86
2018-01-29T16:56:25.351Z,919.87
2018-01-29T16:57:56.993Z,919.81
2018-01-29T16:59:28.823Z,919.74
2018-01-29T17:01:00.629Z,919.61
2018-01-29T17:02:32.450Z,919.55
2018-01-29T17:04:04.299Z,919.50
2018-01-29T17:05:36.102Z,919.47
2018-01-29T17:07:07.928Z,919.49
2018-01-29T17:08:39.853Z,919.46
2018-01-29T17:10:11.663Z,919.42
2018-01-29T17:11:43.402Z,919.32
2018-01-29T17:13:15.227Z,919.30
2018-01-29T17:14:47.051Z,919.23
2018-01-29T17:16:18.876Z,919.16
2018-01-29T17:17:50.700Z,919.14
2018-01-29T17:19:22.527Z,919.03
2018-01-29T17:20:54.380Z,919.09
2018-01-29T17:22:26.171Z,919.01
2018-01-29T17:23:57.995Z,918.99
2018-01-29T17:25:29.820Z,918.98
2018-01-29T17:27:01.816Z,919.03
2018-01-29T17:28:33.466Z,919.08
2018-01-29T17:30:06.460Z,919.09
2018-01-29T17:31:38.116Z,919.15
2018-01-29T17:33:10.042Z,919.18
2018-01-29T17:34:41.924Z,919.15
2018-01-29T17:36:14.039Z,919.14
2018-01-29T17:37:45.175Z,919.07
2018-01-29T17:39:17.247Z,919.05
2018-01-29T17:40:49.102Z,918.97
2018-01-29T17:42:21.059Z,919.00
2018-01-29T17:43:52.542Z,918.99
2018-01-29T17:45:25.421Z,918.99
2018-01-29T17:46:56.489Z,919.04
2018-01-29T17:48:28.420Z,919.00
2018-01-29T17:50:00.015Z,918.99
2018-01-29T17:51:31.506Z,918.98
2018-01-29T17:53:03.521Z,918.96
2018-01-29T17:54:37.921Z,918.90
2018-01-29T17:56:12.472Z,918.91
2018-01-29T17:57:39.739Z,918.88
2018-01-29T17:59:11.060Z,918.81
2018-01-29T18:00:42.790Z,918.87
2018-01-29T18:02:14.876Z,918.86
2018-01-29T18:03:46.925Z,918.83
2018-01-29T18:05:17.500Z,918.87
2018-01-29T18:06:49.034Z,918.95
2018-01-29T18:08:20.864Z,918.94
2018-01-29T18:09:52.680Z,918.98
2018-01-29T18:11:24.500Z,918.96
2018-01-29T18:12:56.323Z,918.98
2018-01-29T18:14:28.155Z,918.96
2018-01-29T18:15:59.973Z,918.85
2018-01-29T18:17:31.788Z,918.83
2018-01-29T18:19:03.758Z,918.83
2018-01-29T18:20:35.432Z,918.87
2018-01-29T18:22:07.365Z,918.82
2018-01-29T18:23:39.077Z,918.79
2018-01-29T18:25:10.899Z,918.85
2018-01-29T18:26:42.722Z,918.85
2018-01-29T18:28:14.542Z,918.82
2018-01-29T18:29:46.365Z,918.86
2018-01-29T18:31:18.188Z,918.87
2018-01-29T18:32:50.010Z,918.92
2018-01-29T18:34:21.833Z,918.91
2018-01-29T18:35:53.655Z,918.99
2018-01-29T18:37:25.478Z,918.99
2018-01-29T18:38:57.301Z,918.96
2018-01-29T18:40:29.224Z,918.93
2018-01-29T18:42:00.949Z,918.90
2018-01-29T18:43:32.769Z,918.95
2018-01-29T18:45:04.593Z,918.95
2018-01-29T18:46:36.435Z,918.97
2018-01-29T18:48:08.268Z,918.98
2018-01-29T18:49:40.063Z,918.99
2018-01-29T18:51:11.886Z,919.04
2018-01-29T18:52:43.757Z,919.05
2018-01-29T18:54:15.533Z,919.04
2018-01-29T18:55:47.356Z,919.00
2018-01-29T18:57:19.204Z,918.96
2018-01-29T18:58:51.196Z,918.90
2018-01-29T19:00:22.825Z,918.90
2018-01-29T19:01:54.679Z,918.93
2018-01-29T19:03:26.511Z,918.94
2018-01-29T19:04:58.299Z,918.88
2018-01-29T19:06:30.118Z,918.88
2018-01-29T19:08:01.942Z,918.87
2018-01-29T19:09:33.770Z,918.88
2018-01-29T19:11:05.588Z,918.89
2018-01-29T19:12:37.411Z,918.91
2018-01-29T19:14:09.234Z,918.92
2018-01-29T19:15:41.057Z,918.88
2018-01-29T19:17:12.980Z,918.95
2018-01-29T19:18:44.703Z,918.98
2018-01-29T19:20:16.525Z,919.07
2018-01-29T19:21:48.349Z,919.18
2018-01-29T19:23:20.179Z,919.22
2018-01-29T19:24:51.995Z,919.20
2018-01-29T19:26:23.818Z,919.17
2018-01-29T19:27:55.642Z,919.18
2018-01-29T19:29:27.465Z,919.17
2018-01-29T19:30:59.290Z,919.13
2018-01-29T19:32:31.112Z,919.09
2018-01-29T19:34:02.937Z,919.05
2018-01-29T19:35:34.860Z,919.02
2018-01-29T19:37:06.584Z,918.96
2018-01-29T19:38:38.407Z,918.93
2018-01-29T19:40:10.231Z,918.89
2018-01-29T19:41:42.054Z,919.00
2018-01-29T19:43:13.877Z,918.95
2018-01-29T19:44:45.699Z,918.92
2018-01-29T19:46:17.524Z,918.83
2018-01-29T19:47:49.348Z,918.84
2018-01-29T19:49:21.168Z,918.73
2018-01-29T19:50:52.991Z,918.67
2018-01-29T19:52:24.816Z,918.65
2018-01-29T19:53:56.789Z,918.62
2018-01-29T19:55:28.461Z,918.67
2018-01-29T19:57:00.284Z,918.67
2018-01-29T19:58:32.106Z,918.61
2018-01-29T20:00:03.929Z,918.71
2018-01-29T20:01:35.758Z,918.77
2018-01-29T20:03:07.574Z,918.77
2018-01-29T20:04:39.396Z,918.80
2018-01-29T20:06:11.216Z,918.76
2018-01-29T20:07:43.040Z,918.72
2018-01-29T20:09:14.863Z,918.73
2018-01-29T20:10:46.684Z,918.79
2018-01-29T20:12:18.757Z,918.74
2018-01-29T20:13:50.327Z,918.70
2018-01-29T20:15:22.146Z,918.64
2018-01-29T20:16:53.983Z,918.56
2018-01-29T20:18:25.789Z,918.53
2018-01-29T20:19:57.621Z,918.52
2018-01-29T20:21:29.430Z,918.51
2018-01-29T20:23:01.250Z,918.57
2018-01-29T20:24:33.070Z,918.57
2018-01-29T20:26:04.945Z,918.60
2018-01-29T20:27:36.709Z,918.63
2018-01-29T20:29:08.528Z,918.64
2018-01-29T20:30:40.448Z,918.63
2018-01-29T20:32:12.185Z,918.63
2018-01-29T20:33:43.987Z,918.75
2018-01-29T20:35:15.806Z,918.79
2018-01-29T20:36:47.643Z,918.82
2018-01-29T20:38:19.443Z,918.78
2018-01-29T20:39:51.263Z,918.78
2018-01-29T20:41:23.099Z,918.72
2018-01-29T20:42:54.999Z,918.69
2018-01-29T20:44:26.719Z,918.67
2018-01-29T20:45:58.538Z,918.72
2018-01-29T20:47:30.356Z,918.73
2018-01-29T20:49:02.274Z,918.78
2018-01-29T20:50:33.992Z,918.84
2018-01-29T20:52:05.811Z,918.89
2018-01-29T20:53:37.627Z,918.93
2018-01-29T20:55:09.447Z,918.97
2018-01-29T20:56:41.265Z,919.03
2018-01-29T20:58:13.083Z,919.10
2018-01-29T20:59:44.900Z,919.08
2018-01-29T21:01:16.718Z,919.11
2018-01-29T21:02:48.542Z,919.11
2018-01-29T21:04:20.354Z,919.18
2018-01-29T21:05:52.172Z,919.25
2018-01-29T21:07:24.238Z,919.37
2018-01-29T21:08:55.806Z,919.47
2018-01-29T21:10:27.623Z,919.45
2018-01-29T21:11:59.444Z,919.45
2018-01-29T21:13:31.360Z,919.51
2018-01-29T21:15:03.081Z,919.46
2018-01-29T21:16:34.894Z,919.51
2018-01-29T21:18:06.712Z,919.44
2018-01-29T21:19:38.527Z,919.44
2018-01-29T21:21:10.345Z,919.50
2018-01-29T21:22:42.191Z,919.49
2018-01-29T21:24:13.979Z,919.42
2018-01-29T21:25:45.896Z,919.39
2018-01-29T21:27:17.612Z,919.35
2018-01-29T21:28:49.429Z,919.30
2018-01-29T21:30:21.246Z,919.33
2018-01-29T21:31:53.062Z,919.50
2018-01-29T21:33:24.878Z,919.49
2018-01-29T21:34:56.695Z,919.49
2018-01-29T21:36:28.512Z,919.48
2018-01-29T21:38:00.352Z,919.48
2018-01-29T21:39:32.145Z,919.44
2018-01-29T21:41:03.961Z,919.44
2018-01-29T21:42:35.777Z,919.42
2018-01-29T21:44:07.697Z,919.45
2018-01-29T21:45:39.412Z,919.45
2018-01-29T21:47:11.227Z,919.40
2018-01-29T21:48:43.044Z,919.41
2018-01-29T21:50:14.865Z,919.40
2018-01-29T21:51:46.680Z,919.39
2018-01-29T21:53:18.494Z,919.40
2018-01-29T21:54:50.310Z,919.50
2018-01-29T21:56:22.127Z,919.49
2018-01-29T21:57:53.942Z,919.47
2018-01-29T21:59:25.761Z,919.52
2018-01-29T22:00:57.577Z,919.52
2018-01-29T22:02:29.493Z,919.50
2018-01-29T22:04:01.211Z,919.61
2018-01-29T22:05:33.026Z,919.59
2018-01-29T22:07:04.844Z,919.58
2018-01-29T22:08:36.661Z,919.57
2018-01-29T22:10:08.479Z,919.56
2018-01-29T22:11:40.294Z,919.61
2018-01-29T22:13:12.111Z,919.62
2018-01-29T22:14:43.928Z,919.66
2018-01-29T22:16:15.745Z,919.72
2018-01-29T22:17:47.562Z,919.71
2018-01-29T22:19:19.377Z,919.80
2018-01-29T22:20:51.297Z,919.75
2018-01-29T22:22:23.011Z,919.79
2018-01-29T22:23:54.829Z,919.85
2018-01-29T22:25:26.645Z,919.88
2018-01-29T22:26:58.461Z,919.88
2018-01-29T22:28:30.279Z,919.86
2018-01-29T22:30:02.096Z,919.83
2018-01-29T22:31:33.911Z,919.91
2018-01-29T22:33:05.729Z,919.87
2018-01-29T22:34:37.546Z,919.91
2018-01-29T22:36:09.367Z,919.91
2018-01-29T22:37:41.181Z,919.91
2018-01-29T22:39:13.103Z,919.86
2018-01-29T22:40:44.814Z,919.94
2018-01-29T22:42:16.630Z,919.97
2018-01-29T22:43:48.447Z,920.04
2018-01-29T22:45:20.263Z,920.00
2018-01-29T22:46:52.080Z,920.14
2018-01-29T22:48:23.897Z,920.12
2018-01-29T22:49:55.713Z,920.17
2018-01-29T22:51:27.531Z,920.17
2018-01-29T22:52:59.349Z,920.18
2018-01-29T22:54:31.164Z,920.19
2018-01-29T22:56:02.982Z,920.23
2018-01-29T22:57:34.899Z,920.24
2018-01-29T22:59:06.615Z,920.28
2018-01-29T23:00:38.433Z,920.33
2018-01-29T23:02:10.251Z,920.38
2018-01-29T23:03:42.069Z,920.37
2018-01-29T23:05:13.886Z,920.42
2018-01-29T23:06:45.703Z,920.43
2018-01-29T23:08:17.520Z,920.43
2018-01-29T23:09:49.338Z,920.52
2018-01-29T23:11:21.164Z,920.52
2018-01-29T23:12:52.971Z,920.47
2018-01-29T23:14:24.788Z,920.50
2018-01-29T23:15:56.807Z,920.62
2018-01-29T23:17:28.424Z,920.51
2018-01-29T23:19:00.243Z,920.57
2018-01-29T23:20:32.058Z,920.58
2018-01-29T23:22:03.876Z,920.59
2018-01-29T23:23:35.692Z,920.65
2018-01-29T23:25:07.510Z,920.64
2018-01-29T23:26:39.327Z,920.62
2018-01-29T23:28:11.144Z,920.56
2018-01-29T23:29:42.961Z,920.59
2018-01-29T23:31:14.778Z,920.71
2018-01-29T23:32:46.594Z,920.72
2018-01-29T23:34:18.512Z,920.80
2018-01-29T23:35:50.269Z,920.78
2018-01-29T23:37:22.044Z,920.84
2018-01-29T23:38:53.860Z,920.96
2018-01-29T23:40:25.677Z,920.95
2018-01-29T23:41:57.492Z,921.00
2018-01-29T23:43:29.307Z,920.93
2018-01-29T23:45:01.124Z,920.96
2018-01-29T23:46:33.040Z,920.96
2018-01-29T23:48:04.755Z,921.02
2018-01-29T23:49:36.573Z,921.13
2018-01-29T23:51:08.385Z,921.29
2018-01-29T23:52:40.302Z,921.35
2018-01-29T23:54:12.018Z,921.45
2018-01-29T23:55:43.831Z,921.56
2018-01-29T23:57:15.648Z,921.68
2018-01-29T23:58:47.462Z,921.79
